Huvudsida
METAR-TAF:

METAR-TAF

Flygplatser :

Bandarabbass

Bandar Abbas, Iran

latitud: 27-13N, longitud: 056-22E, höjd: 10 m

Aktuellt väderrapport

Denna rapport gjordes för 44 minuter sedan, klockan 13:30 UTC
Vind 4 kt från syd
Temperatur 37°C
Fuktighet 57%
Tryck 998 hPa
Sikt: 5000 m
torrdis

METAR: OIKB 241330Z 18004KT 5000 HZ NSC 37/27 Q0997 A2946

Tid: 18:44 (14:14 UTC)

Väderprognos

Denna rapport gjordes för 3 timmar och 14 minuter sedan, klockan 11:00 UTC
Prognos gäller från 24 kl. 12 UTC till 25 kl. 18 UTC
Vind 12 kt från syd
Sikt: 4000 m
torrdis
Temporärt
från 24 kl. 23 UTC till 25 kl. 04 UTC
Vind 6 kt från ost/sydost
Sikt: 3000 m
Temporärt
från 25 kl. 09 UTC till 25 kl. 15 UTC
Vind 16 kt från syd i byarna ända upp till 20 kt
Sikt: 4000 m
sand

TAF: OIKB 241100Z 2412/2518 17012KT 4000 HZ NSC TEMPO 2423/2504 12006KT 3000 HZ/BR TEMPO 2509/2515 18016G20KT 4000 SA

Aktuella väderrapporter och prognoser från 4000 flygplatser (METAR- och TAF-rapporter).

De tillgängliga stationerna syns som gula och röda prickar på kartan.

För musen över prickarna för att se namnen på stationerna.

Klicka sedan för att få väderrapporter och prognoser.

För att ändra kartan: Klicka på de gröna knapparna med ett svart kors på för att zooma in; den gröna knappen med ett streck på för att zooma ut; eller på de gröna pilarna för angränsande kartor.


METAR-TAF: